Time;durP1;ratioP1;P1;durP2;ratioP2;P2;SDS_P1;SDS_P2;PMS_P1;PMS_P2;Temp;Humidity;BMP_temperature;BMP_pressure;BME280_temperature;BME280_humidity;BME280_pressure;Samples;Min_cycle;Max_cycle;Signal;HPM_P1;HPM_P2
2023/04/25 20:26:16;;;;;;;9.52;3.17;;;;;;;24.26;24.45;101390.50;4178443;27;71358;-73
2023/04/25 20:28:20;;;;;;;;;;;;;;;24.28;24.11;101390.34;4191004;28;20110;-76
2023/04/25 20:30:22;;;;;;;7.78;3.25;;;;;;;24.25;24.19;101375.34;4190979;28;19920;-73
2023/04/25 20:32:24;;;;;;;;;;;;;;;24.28;24.30;101391.22;4192418;28;20560;-69
2023/04/25 20:34:25;;;;;;;9.27;3.25;;;;;;;24.29;24.33;101395.63;4193021;28;20458;-71
2023/04/25 20:36:28;;;;;;;6.85;2.75;;;;;;;24.30;24.22;101393.78;4192668;28;20103;-70
2023/04/25 20:38:30;;;;;;;8.80;3.00;;;;;;;24.18;24.85;101395.66;4193221;28;20516;-70
2023/04/25 20:40:31;;;;;;;11.32;2.90;;;;;;;23.97;25.13;101396.44;4191690;28;20117;-68
2023/04/25 20:42:33;;;;;;;7.65;2.97;;;;;;;23.84;24.92;101388.50;4192932;28;20151;-68
2023/04/25 20:44:39;;;;;;;7.68;3.20;;;;;;;23.82;25.02;101395.84;4192680;28;20049;-69
2023/04/25 20:46:41;;;;;;;7.00;2.80;;;;;;;23.81;24.88;101393.28;4189193;28;20425;-70
2023/04/25 20:48:45;;;;;;;10.77;2.78;;;;;;;23.82;24.89;101395.84;4191973;28;20049;-69
2023/04/25 20:50:47;;;;;;;8.73;2.90;;;;;;;23.80;25.12;101392.41;4191632;28;20052;-71
2023/04/25 20:52:49;;;;;;;9.57;3.03;;;;;;;23.74;24.97;101403.66;4207799;28;20046;-71
2023/04/25 20:54:52;;;;;;;8.07;3.20;;;;;;;23.85;24.59;101398.28;4192584;28;20469;-70
2023/04/25 20:56:54;;;;;;;9.43;3.20;;;;;;;23.87;24.74;101390.94;4192877;28;20048;-70
2023/04/25 20:58:57;;;;;;;8.80;3.30;;;;;;;23.93;24.51;101401.19;4192763;28;20049;-71
2023/04/25 21:00:58;;;;;;;18.42;11.77;;;;;;;23.90;24.49;101390.69;4191638;28;20048;-70
2023/04/25 21:03:03;;;;;;;;;;;;;;;23.98;24.70;101398.16;4192940;28;20036;-69
2023/04/25 21:05:06;;;;;;;32.85;22.63;;;;;;;23.91;25.18;101397.78;4192419;28;19924;-67
2023/04/25 21:07:07;;;;;;;;;;;;;;;23.96;24.75;101396.56;4196994;28;20044;-65
2023/04/25 21:09:09;;;;;;;25.60;16.42;;;;;;;23.90;24.99;101401.44;4190572;28;19975;-66
2023/04/25 21:11:11;;;;;;;15.27;9.00;;;;;;;23.93;24.90;101403.88;4191496;28;20072;-69
2023/04/25 21:13:13;;;;;;;11.93;6.45;;;;;;;23.92;25.89;101406.69;4192176;28;20076;-72
2023/04/25 21:15:16;;;;;;;;;;;;;;;23.95;24.90;101403.78;4192538;28;20456;-68
2023/04/25 21:17:18;;;;;;;11.32;4.93;;;;;;;23.87;25.11;101408.91;4192230;28;19963;-70
2023/04/25 21:19:20;;;;;;;12.20;5.22;;;;;;;23.93;25.14;101409.25;4190769;28;20102;-72
2023/04/25 21:21:22;;;;;;;8.85;4.55;;;;;;;23.96;25.14;101405.47;4192391;28;20048;-71
2023/04/25 21:23:23;;;;;;;10.75;5.05;;;;;;;23.81;25.30;101398.66;4192274;28;20045;-81
2023/04/25 21:25:29;;;;;;;10.48;5.10;;;;;;;23.77;25.32;101401.56;4192561;28;20571;-78
2023/04/25 21:27:32;;;;;;;10.27;5.15;;;;;;;23.66;25.76;101403.41;4192840;28;20481;-81
2023/04/25 21:29:36;;;;;;;11.07;4.78;;;;;;;23.60;25.51;101405.63;4191516;28;20048;-81
2023/04/25 21:31:38;;;;;;;11.43;5.20;;;;;;;23.57;25.64;101405.00;4192837;28;20131;-79
2023/04/25 21:33:40;;;;;;;;;;;;;;;23.55;25.86;101410.50;4179886;28;20056;-77
2023/04/25 21:35:41;;;;;;;13.00;6.63;;;;;;;23.50;25.82;101417.22;4192039;28;19920;-74
2023/04/25 21:37:43;;;;;;;10.20;5.40;;;;;;;23.40;26.20;101417.09;4180441;28;20546;-71
2023/04/25 21:39:46;;;;;;;11.18;5.90;;;;;;;23.45;25.77;101414.88;4179849;28;20045;-69
2023/04/25 21:41:48;;;;;;;11.20;5.35;;;;;;;23.44;25.72;101419.41;4181147;28;20453;-72
2023/04/25 21:43:50;;;;;;;9.75;5.38;;;;;;;23.56;25.73;101420.28;4180878;28;20072;-69
2023/04/25 21:45:51;;;;;;;11.43;5.70;;;;;;;23.58;25.67;101415.63;4180775;28;20051;-73
2023/04/25 21:47:57;;;;;;;11.55;5.30;;;;;;;23.59;25.53;101422.69;4180817;28;20049;-68
2023/04/25 21:49:59;;;;;;;11.50;6.70;;;;;;;23.57;25.42;101419.31;4179487;28;20144;-71
2023/04/25 21:52:01;;;;;;;;;;;;;;;23.57;26.00;101424.69;4180933;28;20049;-69
2023/04/25 21:54:04;;;;;;;14.63;8.68;;;;;;;23.55;25.56;101417.69;4181052;28;19999;-70
2023/04/25 21:56:06;;;;;;;15.05;9.10;;;;;;;23.59;25.66;101422.69;4180670;28;20128;-72
2023/04/25 21:58:08;;;;;;;15.02;8.90;;;;;;;23.60;25.65;101426.25;4180819;28;20049;-72
2023/04/25 22:00:26;;;;;;;15.88;8.88;;;;;;;23.58;25.92;101429.03;4179415;28;20055;-70
2023/04/25 22:02:29;;;;;;;17.40;9.85;;;;;;;23.59;25.66;101432.59;4180715;28;20041;-70
2023/04/25 22:04:31;;;;;;;17.92;10.50;;;;;;;23.62;25.54;101429.66;4180635;28;20092;-76
2023/04/25 22:06:33;;;;;;;19.48;10.70;;;;;;;23.67;25.95;101429.28;4180079;28;20428;-69
2023/04/25 22:08:35;;;;;;;16.58;9.82;;;;;;;23.63;25.94;101430.53;4180533;28;20533;-72
2023/04/25 22:10:38;;;;;;;;;;;;;;;23.56;25.81;101430.16;4180734;28;20082;-71
2023/04/25 22:12:40;;;;;;;16.33;9.32;;;;;;;23.45;25.89;101431.00;4180684;28;19924;-71
2023/04/25 22:14:43;;;;;;;16.98;9.20;;;;;;;23.43;25.89;101433.81;4180511;28;20049;-70
2023/04/25 22:16:44;;;;;;;17.55;9.45;;;;;;;23.50;26.11;101433.31;4180185;28;20123;-70
2023/04/25 22:18:50;;;;;;;;;;;;;;;23.61;26.03;101434.19;4181300;28;20053;-76
2023/04/25 22:20:53;;;;;;;11.65;7.18;;;;;;;23.64;25.59;101433.06;4175586;28;19982;-71
2023/04/25 22:22:55;;;;;;;14.05;7.20;;;;;;;23.73;25.71;101436.84;4180123;28;20516;-74
2023/04/25 22:24:57;;;;;;;13.73;6.78;;;;;;;23.78;25.46;101437.34;4179759;28;20045;-72
2023/04/25 22:27:01;;;;;;;13.93;6.90;;;;;;;23.77;25.48;101446.38;4179959;28;20159;-72
2023/04/25 22:29:04;;;;;;;14.50;6.88;;;;;;;23.59;25.54;101441.50;4180042;28;20041;-71
2023/04/25 22:31:05;;;;;;;13.75;5.97;;;;;;;23.55;26.00;101445.41;4178817;28;20184;-70
2023/04/25 22:33:07;;;;;;;13.70;6.38;;;;;;;23.55;25.79;101447.22;4180289;28;20045;-68
2023/04/25 22:35:09;;;;;;;11.77;5.78;;;;;;;23.60;25.21;101442.38;4180124;28;20370;-68
2023/04/25 22:37:11;;;;;;;12.32;5.63;;;;;;;23.71;24.97;101450.41;4177909;28;20044;-76
2023/04/25 22:39:15;;;;;;;13.02;5.65;;;;;;;23.77;24.96;101449.91;4179785;28;20052;-71
2023/04/25 22:41:17;;;;;;;11.73;5.28;;;;;;;23.84;24.89;101449.41;4193929;28;20045;-70
2023/04/25 22:43:19;;;;;;;11.75;5.03;;;;;;;23.79;25.17;101447.09;4180622;28;20529;-73
2023/04/25 22:45:21;;;;;;;10.77;5.20;;;;;;;23.79;24.96;101448.94;4180447;28;20479;-73
2023/04/25 22:47:23;;;;;;;8.00;4.50;;;;;;;23.71;25.17;101452.25;4178945;28;20045;-78
2023/04/25 22:49:25;;;;;;;9.45;4.70;;;;;;;23.65;24.94;101452.75;4178563;28;20040;-78
2023/04/25 22:51:27;;;;;;;9.48;4.82;;;;;;;23.59;25.20;101443.34;4178713;28;20045;-70
2023/04/25 22:53:30;;;;;;;9.05;4.40;;;;;;;23.55;25.27;101439.16;4179934;28;20048;-72
2023/04/25 22:55:32;;;;;;;10.27;3.80;;;;;;;23.52;25.77;101445.63;4179748;28;20059;-75
2023/04/25 22:57:37;;;;;;;7.60;3.70;;;;;;;23.58;25.23;101439.78;4179581;28;20413;-71
2023/04/25 22:59:38;;;;;;;8.50;3.80;;;;;;;23.59;25.06;101441.50;4178798;28;20055;-74
2023/04/25 23:01:40;;;;;;;9.63;4.10;;;;;;;23.66;25.01;101433.81;4179264;28;20045;-73
2023/04/25 23:03:43;;;;;;;10.27;3.70;;;;;;;23.58;25.27;101433.56;4179673;28;20041;-71
2023/04/25 23:05:45;;;;;;;10.43;4.30;;;;;;;23.68;25.28;101445.31;4179632;28;20052;-70
2023/04/25 23:07:47;;;;;;;6.93;3.20;;;;;;;23.63;25.20;101438.59;4179190;28;20048;-71
2023/04/25 23:09:48;;;;;;;8.25;3.60;;;;;;;23.54;25.21;101424.06;4192780;28;20130;-69
2023/04/25 23:11:52;;;;;;;;;;;;;;;23.57;25.02;101439.91;4167576;28;20057;-72
2023/04/25 23:13:53;;;;;;;6.93;3.00;;;;;;;23.48;24.82;101436.13;4163861;28;20036;-70
2023/04/25 23:15:55;;;;;;;;;;;;;;;23.49;24.92;101445.03;4164252;28;20075;-74
2023/04/25 23:17:57;;;;;;;7.47;3.15;;;;;;;23.33;25.16;101424.78;4164021;28;20324;-74
2023/04/25 23:19:59;;;;;;;7.72;3.17;;;;;;;23.48;25.22;101446.03;4176342;28;20052;-71
2023/04/25 23:22:01;;;;;;;;;;;;;;;23.45;25.04;101444.41;4180575;28;20099;-74
2023/04/25 23:24:03;;;;;;;7.30;3.05;;;;;;;23.41;25.17;101442.97;4179767;28;19920;-73
2023/04/25 23:26:09;;;;;;;7.53;3.33;;;;;;;23.43;24.99;101447.22;4178377;28;20061;-74
2023/04/25 23:28:11;;;;;;;6.50;2.90;;;;;;;23.46;24.52;101456.88;4176869;28;20049;-73
2023/04/25 23:30:14;;;;;;;7.65;3.55;;;;;;;23.45;25.12;101447.97;4179261;28;20372;-74
2023/04/25 23:32:15;;;;;;;7.18;3.38;;;;;;;23.43;25.03;101447.22;4180232;28;20057;-73
2023/04/25 23:34:17;;;;;;;8.13;2.95;;;;;;;23.40;25.14;101447.50;4179743;28;20560;-74
2023/04/25 23:36:20;;;;;;;;;;;;;;;23.39;24.92;101459.19;4180802;28;20049;-73
2023/04/25 23:38:21;;;;;;;6.20;2.92;;;;;;;23.39;25.43;101448.47;4180368;28;20350;-73
2023/04/25 23:40:23;;;;;;;6.10;2.72;;;;;;;23.41;24.95;101456.38;4178936;28;20049;-74
2023/04/25 23:42:25;;;;;;;7.75;2.97;;;;;;;23.42;25.29;101450.03;4180136;28;20064;-73
2023/04/25 23:44:27;;;;;;;;;;;;;;;23.38;25.12;101452.13;4180743;28;20127;-74
2023/04/25 23:46:29;;;;;;;6.70;3.13;;;;;;;23.37;25.35;101449.56;4195386;28;20010;-74
2023/04/25 23:48:31;;;;;;;6.32;2.85;;;;;;;23.41;25.19;101457.22;4179700;28;20081;-74
2023/04/25 23:50:33;;;;;;;5.47;2.72;;;;;;;23.43;25.13;101449.06;4178855;28;20122;-74
2023/04/25 23:52:35;;;;;;;7.60;2.72;;;;;;;23.44;25.22;101453.47;4180213;28;20049;-74
2023/04/25 23:54:37;;;;;;;5.88;2.45;;;;;;;23.44;25.25;101451.63;4179958;28;20048;-75
2023/04/25 23:56:39;;;;;;;6.45;2.42;;;;;;;23.40;25.16;101444.81;4178425;28;20052;-74
2023/04/25 23:58:40;;;;;;;;;;;;;;;23.40;25.33;101457.34;4180572;28;20486;-74
